sensor_id;sensor_type;location;lat;lon;timestamp;P1;durP1;ratioP1;P2;durP2;ratioP2
16304;SDS011;8261;47.678;-122.174;2022-08-21T00:00:08;3.33;;;1.40;;
16304;SDS011;8261;47.678;-122.174;2022-08-21T00:03:09;3.23;;;1.67;;
16304;SDS011;8261;47.678;-122.174;2022-08-21T00:06:02;2.10;;;1.77;;
16304;SDS011;8261;47.678;-122.174;2022-08-21T00:08:39;1.97;;;1.80;;
16304;SDS011;8261;47.678;-122.174;2022-08-21T00:11:14;2.40;;;1.80;;
16304;SDS011;8261;47.678;-122.174;2022-08-21T00:13:46;2.83;;;1.73;;
16304;SDS011;8261;47.678;-122.174;2022-08-21T00:16:18;3.47;;;1.80;;
16304;SDS011;8261;47.678;-122.174;2022-08-21T00:19:02;2.10;;;1.80;;
16304;SDS011;8261;47.678;-122.174;2022-08-21T00:21:39;2.60;;;1.80;;
16304;SDS011;8261;47.678;-122.174;2022-08-21T00:24:11;2.53;;;1.83;;
16304;SDS011;8261;47.678;-122.174;2022-08-21T00:26:44;2.90;;;1.80;;
16304;SDS011;8261;47.678;-122.174;2022-08-21T00:29:16;4.40;;;1.80;;
16304;SDS011;8261;47.678;-122.174;2022-08-21T00:31:47;3.97;;;1.90;;
16304;SDS011;8261;47.678;-122.174;2022-08-21T00:34:19;2.80;;;2.00;;
16304;SDS011;8261;47.678;-122.174;2022-08-21T00:36:52;2.60;;;2.00;;
16304;SDS011;8261;47.678;-122.174;2022-08-21T00:39:33;4.53;;;2.20;;
16304;SDS011;8261;47.678;-122.174;2022-08-21T00:42:07;4.20;;;2.30;;
16304;SDS011;8261;47.678;-122.174;2022-08-21T00:44:42;4.07;;;2.10;;
16304;SDS011;8261;47.678;-122.174;2022-08-21T00:47:14;4.20;;;2.03;;
16304;SDS011;8261;47.678;-122.174;2022-08-21T00:49:47;4.87;;;2.03;;
16304;SDS011;8261;47.678;-122.174;2022-08-21T00:52:33;2.47;;;1.93;;
16304;SDS011;8261;47.678;-122.174;2022-08-21T00:55:31;3.70;;;2.30;;
16304;SDS011;8261;47.678;-122.174;2022-08-21T01:01:29;2.63;;;2.30;;
16304;SDS011;8261;47.678;-122.174;2022-08-21T01:04:05;2.47;;;2.27;;
16304;SDS011;8261;47.678;-122.174;2022-08-21T01:06:54;3.60;;;2.37;;
16304;SDS011;8261;47.678;-122.174;2022-08-21T01:09:26;2.63;;;2.20;;
16304;SDS011;8261;47.678;-122.174;2022-08-21T01:12:17;4.30;;;2.40;;
16304;SDS011;8261;47.678;-122.174;2022-08-21T01:14:54;3.20;;;2.13;;
16304;SDS011;8261;47.678;-122.174;2022-08-21T01:17:37;4.93;;;2.37;;
16304;SDS011;8261;47.678;-122.174;2022-08-21T01:20:10;4.60;;;2.50;;
16304;SDS011;8261;47.678;-122.174;2022-08-21T01:22:48;2.50;;;2.30;;
16304;SDS011;8261;47.678;-122.174;2022-08-21T01:25:20;2.40;;;2.20;;
16304;SDS011;8261;47.678;-122.174;2022-08-21T01:27:52;2.80;;;2.40;;
16304;SDS011;8261;47.678;-122.174;2022-08-21T01:30:25;2.83;;;2.50;;
16304;SDS011;8261;47.678;-122.174;2022-08-21T01:33:13;2.40;;;2.20;;
16304;SDS011;8261;47.678;-122.174;2022-08-21T01:36:11;3.27;;;2.23;;
16304;SDS011;8261;47.678;-122.174;2022-08-21T01:42:11;3.70;;;2.40;;
16304;SDS011;8261;47.678;-122.174;2022-08-21T01:44:57;2.97;;;2.67;;
16304;SDS011;8261;47.678;-122.174;2022-08-21T01:47:29;2.70;;;2.17;;
16304;SDS011;8261;47.678;-122.174;2022-08-21T01:50:14;2.97;;;2.47;;
16304;SDS011;8261;47.678;-122.174;2022-08-21T01:52:48;3.67;;;2.57;;
16304;SDS011;8261;47.678;-122.174;2022-08-21T01:55:34;4.33;;;2.70;;
16304;SDS011;8261;47.678;-122.174;2022-08-21T01:58:22;2.90;;;1.87;;
16304;SDS011;8261;47.678;-122.174;2022-08-21T02:00:55;5.20;;;2.83;;
16304;SDS011;8261;47.678;-122.174;2022-08-21T02:03:45;3.00;;;2.30;;
16304;SDS011;8261;47.678;-122.174;2022-08-21T02:06:16;2.90;;;2.60;;
16304;SDS011;8261;47.678;-122.174;2022-08-21T02:09:06;3.03;;;2.60;;
16304;SDS011;8261;47.678;-122.174;2022-08-21T02:11:40;3.97;;;2.80;;
16304;SDS011;8261;47.678;-122.174;2022-08-21T02:14:41;5.27;;;2.70;;
16304;SDS011;8261;47.678;-122.174;2022-08-21T02:17:12;3.43;;;2.83;;
16304;SDS011;8261;47.678;-122.174;2022-08-21T02:19:43;2.67;;;2.47;;
16304;SDS011;8261;47.678;-122.174;2022-08-21T02:22:15;7.73;;;2.80;;
16304;SDS011;8261;47.678;-122.174;2022-08-21T02:24:46;3.93;;;2.93;;
16304;SDS011;8261;47.678;-122.174;2022-08-21T02:27:21;2.73;;;2.43;;
16304;SDS011;8261;47.678;-122.174;2022-08-21T02:30:10;3.67;;;2.53;;
16304;SDS011;8261;47.678;-122.174;2022-08-21T02:32:46;2.73;;;2.53;;
16304;SDS011;8261;47.678;-122.174;2022-08-21T02:35:18;2.97;;;2.77;;
16304;SDS011;8261;47.678;-122.174;2022-08-21T02:37:51;4.10;;;3.00;;
16304;SDS011;8261;47.678;-122.174;2022-08-21T02:40:39;3.20;;;2.90;;
16304;SDS011;8261;47.678;-122.174;2022-08-21T02:43:16;3.73;;;3.07;;
16304;SDS011;8261;47.678;-122.174;2022-08-21T02:48:52;4.67;;;3.13;;
16304;SDS011;8261;47.678;-122.174;2022-08-21T02:51:24;3.27;;;2.77;;
16304;SDS011;8261;47.678;-122.174;2022-08-21T02:53:55;3.87;;;2.90;;
16304;SDS011;8261;47.678;-122.174;2022-08-21T02:56:28;3.47;;;2.53;;
16304;SDS011;8261;47.678;-122.174;2022-08-21T02:58:59;4.10;;;2.77;;
16304;SDS011;8261;47.678;-122.174;2022-08-21T03:01:35;4.47;;;2.70;;
16304;SDS011;8261;47.678;-122.174;2022-08-21T03:04:08;5.63;;;2.90;;
16304;SDS011;8261;47.678;-122.174;2022-08-21T03:06:41;3.17;;;2.83;;
16304;SDS011;8261;47.678;-122.174;2022-08-21T03:09:42;3.37;;;2.70;;
16304;SDS011;8261;47.678;-122.174;2022-08-21T03:12:34;5.10;;;2.90;;
16304;SDS011;8261;47.678;-122.174;2022-08-21T03:15:06;2.80;;;2.40;;
16304;SDS011;8261;47.678;-122.174;2022-08-21T03:17:44;2.90;;;2.60;;
16304;SDS011;8261;47.678;-122.174;2022-08-21T03:20:17;5.53;;;2.70;;
16304;SDS011;8261;47.678;-122.174;2022-08-21T03:22:51;5.73;;;2.90;;
16304;SDS011;8261;47.678;-122.174;2022-08-21T03:25:36;4.47;;;2.90;;
16304;SDS011;8261;47.678;-122.174;2022-08-21T03:28:20;3.87;;;2.90;;
16304;SDS011;8261;47.678;-122.174;2022-08-21T03:30:53;4.37;;;2.83;;
16304;SDS011;8261;47.678;-122.174;2022-08-21T03:33:27;3.40;;;3.10;;
16304;SDS011;8261;47.678;-122.174;2022-08-21T03:36:04;4.07;;;3.70;;
16304;SDS011;8261;47.678;-122.174;2022-08-21T03:38:41;5.23;;;4.73;;
16304;SDS011;8261;47.678;-122.174;2022-08-21T03:41:13;7.27;;;4.07;;
16304;SDS011;8261;47.678;-122.174;2022-08-21T03:43:54;6.23;;;3.93;;
16304;SDS011;8261;47.678;-122.174;2022-08-21T03:46:27;6.60;;;4.40;;
16304;SDS011;8261;47.678;-122.174;2022-08-21T03:52:15;5.70;;;4.17;;
16304;SDS011;8261;47.678;-122.174;2022-08-21T03:54:46;4.40;;;3.50;;
16304;SDS011;8261;47.678;-122.174;2022-08-21T03:57:18;6.07;;;4.43;;
16304;SDS011;8261;47.678;-122.174;2022-08-21T03:59:49;4.63;;;3.37;;
16304;SDS011;8261;47.678;-122.174;2022-08-21T04:11:09;3.87;;;3.57;;
16304;SDS011;8261;47.678;-122.174;2022-08-21T04:13:58;4.40;;;3.70;;
16304;SDS011;8261;47.678;-122.174;2022-08-21T04:16:31;4.70;;;3.83;;
16304;SDS011;8261;47.678;-122.174;2022-08-21T04:19:31;6.60;;;2.70;;
16304;SDS011;8261;47.678;-122.174;2022-08-21T04:22:28;4.20;;;3.40;;
16304;SDS011;8261;47.678;-122.174;2022-08-21T04:28:30;4.93;;;3.20;;
16304;SDS011;8261;47.678;-122.174;2022-08-21T04:31:07;5.60;;;2.90;;
16304;SDS011;8261;47.678;-122.174;2022-08-21T04:33:38;5.03;;;3.07;;
16304;SDS011;8261;47.678;-122.174;2022-08-21T04:36:10;3.33;;;3.03;;
16304;SDS011;8261;47.678;-122.174;2022-08-21T04:38:46;3.80;;;2.73;;
16304;SDS011;8261;47.678;-122.174;2022-08-21T04:41:49;4.70;;;2.70;;
16304;SDS011;8261;47.678;-122.174;2022-08-21T04:44:20;3.80;;;3.10;;
16304;SDS011;8261;47.678;-122.174;2022-08-21T04:46:52;4.27;;;3.00;;
16304;SDS011;8261;47.678;-122.174;2022-08-21T04:49:38;3.00;;;2.80;;
16304;SDS011;8261;47.678;-122.174;2022-08-21T04:52:11;2.93;;;2.70;;
16304;SDS011;8261;47.678;-122.174;2022-08-21T04:54:47;3.10;;;2.80;;
16304;SDS011;8261;47.678;-122.174;2022-08-21T04:57:27;3.90;;;2.47;;
16304;SDS011;8261;47.678;-122.174;2022-08-21T05:00:15;3.30;;;2.80;;
16304;SDS011;8261;47.678;-122.174;2022-08-21T05:03:14;3.20;;;2.70;;
16304;SDS011;8261;47.678;-122.174;2022-08-21T05:05:50;2.40;;;2.27;;
16304;SDS011;8261;47.678;-122.174;2022-08-21T05:08:21;5.50;;;2.73;;
16304;SDS011;8261;47.678;-122.174;2022-08-21T05:10:55;4.30;;;2.50;;
16304;SDS011;8261;47.678;-122.174;2022-08-21T05:13:55;2.73;;;2.40;;
16304;SDS011;8261;47.678;-122.174;2022-08-21T05:16:26;2.40;;;2.20;;
16304;SDS011;8261;47.678;-122.174;2022-08-21T05:19:03;2.60;;;2.30;;
16304;SDS011;8261;47.678;-122.174;2022-08-21T05:21:35;2.53;;;2.30;;
16304;SDS011;8261;47.678;-122.174;2022-08-21T05:24:09;2.77;;;2.57;;
16304;SDS011;8261;47.678;-122.174;2022-08-21T05:26:41;3.33;;;2.43;;
16304;SDS011;8261;47.678;-122.174;2022-08-21T05:29:15;2.63;;;2.43;;
16304;SDS011;8261;47.678;-122.174;2022-08-21T05:31:48;3.53;;;2.03;;
16304;SDS011;8261;47.678;-122.174;2022-08-21T05:34:19;2.70;;;2.27;;
16304;SDS011;8261;47.678;-122.174;2022-08-21T05:36:52;2.43;;;2.23;;
16304;SDS011;8261;47.678;-122.174;2022-08-21T05:39:23;2.53;;;2.33;;
16304;SDS011;8261;47.678;-122.174;2022-08-21T05:42:15;3.97;;;2.40;;
16304;SDS011;8261;47.678;-122.174;2022-08-21T05:44:51;3.33;;;2.43;;
16304;SDS011;8261;47.678;-122.174;2022-08-21T05:47:22;2.40;;;2.20;;
16304;SDS011;8261;47.678;-122.174;2022-08-21T05:50:03;2.73;;;2.30;;
16304;SDS011;8261;47.678;-122.174;2022-08-21T05:52:35;3.27;;;2.37;;
16304;SDS011;8261;47.678;-122.174;2022-08-21T05:55:07;2.80;;;2.40;;
16304;SDS011;8261;47.678;-122.174;2022-08-21T05:57:38;2.63;;;2.13;;
16304;SDS011;8261;47.678;-122.174;2022-08-21T06:00:14;3.27;;;2.63;;
16304;SDS011;8261;47.678;-122.174;2022-08-21T06:02:45;3.43;;;2.53;;
16304;SDS011;8261;47.678;-122.174;2022-08-21T06:05:18;3.63;;;2.37;;
16304;SDS011;8261;47.678;-122.174;2022-08-21T06:08:03;3.37;;;2.47;;
16304;SDS011;8261;47.678;-122.174;2022-08-21T06:10:35;2.40;;;2.20;;
16304;SDS011;8261;47.678;-122.174;2022-08-21T06:13:07;4.47;;;2.47;;
16304;SDS011;8261;47.678;-122.174;2022-08-21T06:15:41;2.47;;;2.27;;
16304;SDS011;8261;47.678;-122.174;2022-08-21T06:18:12;2.80;;;2.23;;
16304;SDS011;8261;47.678;-122.174;2022-08-21T06:20:43;2.20;;;2.00;;
16304;SDS011;8261;47.678;-122.174;2022-08-21T06:23:15;2.20;;;2.00;;
16304;SDS011;8261;47.678;-122.174;2022-08-21T06:25:59;3.63;;;2.40;;
16304;SDS011;8261;47.678;-122.174;2022-08-21T06:28:32;3.13;;;2.20;;
16304;SDS011;8261;47.678;-122.174;2022-08-21T06:31:11;2.40;;;2.20;;
16304;SDS011;8261;47.678;-122.174;2022-08-21T06:33:45;2.63;;;2.10;;
16304;SDS011;8261;47.678;-122.174;2022-08-21T06:36:18;1.87;;;1.77;;
16304;SDS011;8261;47.678;-122.174;2022-08-21T06:38:50;3.30;;;2.30;;
16304;SDS011;8261;47.678;-122.174;2022-08-21T06:41:23;2.23;;;2.10;;
16304;SDS011;8261;47.678;-122.174;2022-08-21T06:43:55;2.33;;;1.90;;
16304;SDS011;8261;47.678;-122.174;2022-08-21T06:46:29;2.50;;;1.93;;
16304;SDS011;8261;47.678;-122.174;2022-08-21T06:49:01;3.90;;;2.10;;
16304;SDS011;8261;47.678;-122.174;2022-08-21T06:51:48;2.00;;;1.80;;
16304;SDS011;8261;47.678;-122.174;2022-08-21T06:54:20;3.00;;;2.10;;
16304;SDS011;8261;47.678;-122.174;2022-08-21T06:56:51;4.50;;;2.10;;
16304;SDS011;8261;47.678;-122.174;2022-08-21T06:59:25;1.80;;;1.70;;
16304;SDS011;8261;47.678;-122.174;2022-08-21T07:01:58;4.60;;;1.93;;
16304;SDS011;8261;47.678;-122.174;2022-08-21T07:04:30;3.43;;;1.63;;
16304;SDS011;8261;47.678;-122.174;2022-08-21T07:07:03;2.93;;;1.90;;
16304;SDS011;8261;47.678;-122.174;2022-08-21T07:09:34;2.77;;;1.90;;
16304;SDS011;8261;47.678;-122.174;2022-08-21T07:12:06;2.47;;;1.90;;
16304;SDS011;8261;47.678;-122.174;2022-08-21T07:14:38;3.00;;;2.13;;
16304;SDS011;8261;47.678;-122.174;2022-08-21T07:17:12;3.13;;;2.10;;
16304;SDS011;8261;47.678;-122.174;2022-08-21T07:19:43;2.83;;;1.73;;
16304;SDS011;8261;47.678;-122.174;2022-08-21T07:22:15;2.97;;;2.20;;
16304;SDS011;8261;47.678;-122.174;2022-08-21T07:24:49;1.90;;;1.80;;
16304;SDS011;8261;47.678;-122.174;2022-08-21T07:27:21;2.33;;;1.90;;
16304;SDS011;8261;47.678;-122.174;2022-08-21T07:29:53;2.10;;;1.90;;
16304;SDS011;8261;47.678;-122.174;2022-08-21T07:32:26;2.53;;;2.20;;
16304;SDS011;8261;47.678;-122.174;2022-08-21T07:34:58;3.57;;;2.07;;
16304;SDS011;8261;47.678;-122.174;2022-08-21T07:37:29;2.13;;;1.93;;
16304;SDS011;8261;47.678;-122.174;2022-08-21T07:40:01;2.63;;;2.10;;
16304;SDS011;8261;47.678;-122.174;2022-08-21T07:42:33;2.40;;;2.20;;
16304;SDS011;8261;47.678;-122.174;2022-08-21T07:45:09;2.97;;;2.03;;
16304;SDS011;8261;47.678;-122.174;2022-08-21T07:47:43;2.90;;;2.30;;
16304;SDS011;8261;47.678;-122.174;2022-08-21T07:50:14;4.13;;;2.00;;
16304;SDS011;8261;47.678;-122.174;2022-08-21T07:52:46;2.10;;;1.90;;
16304;SDS011;8261;47.678;-122.174;2022-08-21T07:55:18;5.33;;;1.80;;
16304;SDS011;8261;47.678;-122.174;2022-08-21T07:57:51;2.43;;;1.80;;
16304;SDS011;8261;47.678;-122.174;2022-08-21T08:00:24;1.63;;;1.53;;
16304;SDS011;8261;47.678;-122.174;2022-08-21T08:02:59;1.50;;;1.30;;
16304;SDS011;8261;47.678;-122.174;2022-08-21T08:05:31;1.53;;;1.43;;
16304;SDS011;8261;47.678;-122.174;2022-08-21T08:08:05;1.40;;;1.30;;
16304;SDS011;8261;47.678;-122.174;2022-08-21T08:10:36;2.40;;;1.30;;
16304;SDS011;8261;47.678;-122.174;2022-08-21T08:13:09;2.63;;;1.30;;
16304;SDS011;8261;47.678;-122.174;2022-08-21T08:15:41;1.80;;;1.70;;
16304;SDS011;8261;47.678;-122.174;2022-08-21T08:18:15;2.00;;;1.33;;
16304;SDS011;8261;47.678;-122.174;2022-08-21T08:20:46;1.50;;;1.40;;
16304;SDS011;8261;47.678;-122.174;2022-08-21T08:23:18;1.47;;;1.37;;
16304;SDS011;8261;47.678;-122.174;2022-08-21T08:25:50;2.40;;;1.30;;
16304;SDS011;8261;47.678;-122.174;2022-08-21T08:28:22;1.33;;;1.23;;
16304;SDS011;8261;47.678;-122.174;2022-08-21T08:30:53;1.23;;;1.20;;
16304;SDS011;8261;47.678;-122.174;2022-08-21T08:33:27;1.40;;;1.30;;
16304;SDS011;8261;47.678;-122.174;2022-08-21T08:35:59;1.20;;;1.10;;
16304;SDS011;8261;47.678;-122.174;2022-08-21T08:38:34;1.30;;;1.00;;
16304;SDS011;8261;47.678;-122.174;2022-08-21T08:41:09;0.97;;;0.97;;
16304;SDS011;8261;47.678;-122.174;2022-08-21T08:43:44;1.00;;;0.90;;
16304;SDS011;8261;47.678;-122.174;2022-08-21T08:46:20;1.10;;;1.00;;
16304;SDS011;8261;47.678;-122.174;2022-08-21T08:49:01;1.33;;;0.90;;
16304;SDS011;8261;47.678;-122.174;2022-08-21T08:51:38;0.80;;;0.80;;
16304;SDS011;8261;47.678;-122.174;2022-08-21T08:54:19;1.60;;;0.97;;
16304;SDS011;8261;47.678;-122.174;2022-08-21T08:56:59;1.50;;;0.90;;
16304;SDS011;8261;47.678;-122.174;2022-08-21T08:59:33;1.03;;;0.80;;
16304;SDS011;8261;47.678;-122.174;2022-08-21T09:02:10;0.90;;;0.90;;
16304;SDS011;8261;47.678;-122.174;2022-08-21T09:04:45;1.57;;;0.90;;
16304;SDS011;8261;47.678;-122.174;2022-08-21T09:07:20;0.80;;;0.80;;
16304;SDS011;8261;47.678;-122.174;2022-08-21T09:10:03;0.97;;;0.90;;
16304;SDS011;8261;47.678;-122.174;2022-08-21T09:12:45;0.70;;;0.70;;
16304;SDS011;8261;47.678;-122.174;2022-08-21T09:15:24;0.80;;;0.80;;
16304;SDS011;8261;47.678;-122.174;2022-08-21T09:21:06;0.70;;;0.70;;
16304;SDS011;8261;47.678;-122.174;2022-08-21T09:23:49;0.70;;;0.70;;
16304;SDS011;8261;47.678;-122.174;2022-08-21T09:26:25;2.60;;;0.90;;
16304;SDS011;8261;47.678;-122.174;2022-08-21T09:29:02;0.60;;;0.60;;
16304;SDS011;8261;47.678;-122.174;2022-08-21T09:31:35;0.70;;;0.70;;
16304;SDS011;8261;47.678;-122.174;2022-08-21T09:34:08;1.13;;;0.73;;
16304;SDS011;8261;47.678;-122.174;2022-08-21T09:36:44;0.70;;;0.70;;
16304;SDS011;8261;47.678;-122.174;2022-08-21T09:39:23;1.47;;;0.93;;
16304;SDS011;8261;47.678;-122.174;2022-08-21T09:41:56;1.90;;;0.80;;
16304;SDS011;8261;47.678;-122.174;2022-08-21T09:44:31;1.20;;;0.80;;
16304;SDS011;8261;47.678;-122.174;2022-08-21T09:47:07;0.70;;;0.70;;
16304;SDS011;8261;47.678;-122.174;2022-08-21T09:49:41;0.63;;;0.63;;
16304;SDS011;8261;47.678;-122.174;2022-08-21T09:52:17;1.30;;;0.87;;
16304;SDS011;8261;47.678;-122.174;2022-08-21T09:54:52;1.20;;;0.93;;
16304;SDS011;8261;47.678;-122.174;2022-08-21T09:57:27;1.00;;;0.87;;
16304;SDS011;8261;47.678;-122.174;2022-08-21T10:00:18;2.97;;;0.83;;
16304;SDS011;8261;47.678;-122.174;2022-08-21T10:02:54;0.80;;;0.80;;
16304;SDS011;8261;47.678;-122.174;2022-08-21T10:05:37;0.93;;;0.80;;
16304;SDS011;8261;47.678;-122.174;2022-08-21T10:08:20;0.80;;;0.80;;
16304;SDS011;8261;47.678;-122.174;2022-08-21T10:10:55;0.83;;;0.83;;
16304;SDS011;8261;47.678;-122.174;2022-08-21T10:13:47;0.80;;;0.77;;
16304;SDS011;8261;47.678;-122.174;2022-08-21T10:16:35;0.80;;;0.80;;
16304;SDS011;8261;47.678;-122.174;2022-08-21T10:19:19;0.90;;;0.90;;
16304;SDS011;8261;47.678;-122.174;2022-08-21T10:22:00;1.27;;;0.90;;
16304;SDS011;8261;47.678;-122.174;2022-08-21T10:24:44;0.83;;;0.80;;
16304;SDS011;8261;47.678;-122.174;2022-08-21T10:27:24;2.03;;;1.10;;
16304;SDS011;8261;47.678;-122.174;2022-08-21T10:30:03;0.70;;;0.70;;
16304;SDS011;8261;47.678;-122.174;2022-08-21T10:32:56;1.10;;;0.80;;
16304;SDS011;8261;47.678;-122.174;2022-08-21T10:35:40;1.20;;;1.10;;
16304;SDS011;8261;47.678;-122.174;2022-08-21T10:38:27;1.00;;;1.00;;
16304;SDS011;8261;47.678;-122.174;2022-08-21T10:41:39;1.30;;;1.20;;
16304;SDS011;8261;47.678;-122.174;2022-08-21T10:44:47;1.20;;;1.10;;
16304;SDS011;8261;47.678;-122.174;2022-08-21T10:47:27;1.20;;;1.10;;
16304;SDS011;8261;47.678;-122.174;2022-08-21T10:50:04;1.33;;;1.10;;
16304;SDS011;8261;47.678;-122.174;2022-08-21T10:52:46;1.53;;;1.30;;
16304;SDS011;8261;47.678;-122.174;2022-08-21T10:55:31;1.10;;;1.00;;
16304;SDS011;8261;47.678;-122.174;2022-08-21T10:58:08;3.53;;;1.07;;
16304;SDS011;8261;47.678;-122.174;2022-08-21T11:00:41;1.07;;;1.00;;
16304;SDS011;8261;47.678;-122.174;2022-08-21T11:03:20;1.53;;;1.30;;
16304;SDS011;8261;47.678;-122.174;2022-08-21T11:05:58;1.30;;;1.20;;
16304;SDS011;8261;47.678;-122.174;2022-08-21T11:08:35;1.30;;;1.20;;
16304;SDS011;8261;47.678;-122.174;2022-08-21T11:11:14;1.20;;;1.10;;
16304;SDS011;8261;47.678;-122.174;2022-08-21T11:13:57;2.40;;;1.10;;
16304;SDS011;8261;47.678;-122.174;2022-08-21T11:16:33;1.93;;;1.20;;
16304;SDS011;8261;47.678;-122.174;2022-08-21T11:19:09;1.77;;;1.40;;
16304;SDS011;8261;47.678;-122.174;2022-08-21T11:21:46;1.33;;;1.23;;
16304;SDS011;8261;47.678;-122.174;2022-08-21T11:24:26;1.63;;;1.53;;
16304;SDS011;8261;47.678;-122.174;2022-08-21T11:27:07;1.57;;;1.20;;
16304;SDS011;8261;47.678;-122.174;2022-08-21T11:29:47;1.50;;;1.40;;
16304;SDS011;8261;47.678;-122.174;2022-08-21T11:32:31;1.40;;;1.30;;
16304;SDS011;8261;47.678;-122.174;2022-08-21T11:35:23;2.73;;;1.47;;
16304;SDS011;8261;47.678;-122.174;2022-08-21T11:38:08;1.40;;;1.30;;
16304;SDS011;8261;47.678;-122.174;2022-08-21T11:41:07;1.43;;;1.30;;
16304;SDS011;8261;47.678;-122.174;2022-08-21T11:43:53;2.80;;;1.47;;
16304;SDS011;8261;47.678;-122.174;2022-08-21T11:46:38;1.37;;;1.20;;
16304;SDS011;8261;47.678;-122.174;2022-08-21T11:49:19;1.70;;;1.27;;
16304;SDS011;8261;47.678;-122.174;2022-08-21T11:52:02;1.53;;;1.10;;
16304;SDS011;8261;47.678;-122.174;2022-08-21T11:54:41;2.50;;;1.30;;
16304;SDS011;8261;47.678;-122.174;2022-08-21T11:57:18;1.57;;;1.13;;
16304;SDS011;8261;47.678;-122.174;2022-08-21T11:59:54;1.20;;;1.10;;
16304;SDS011;8261;47.678;-122.174;2022-08-21T12:02:31;1.13;;;1.13;;
16304;SDS011;8261;47.678;-122.174;2022-08-21T12:05:06;1.90;;;1.00;;
16304;SDS011;8261;47.678;-122.174;2022-08-21T12:07:42;1.30;;;1.00;;
16304;SDS011;8261;47.678;-122.174;2022-08-21T12:10:16;1.70;;;1.27;;
16304;SDS011;8261;47.678;-122.174;2022-08-21T12:12:49;1.30;;;1.20;;
16304;SDS011;8261;47.678;-122.174;2022-08-21T12:15:25;1.13;;;1.03;;
16304;SDS011;8261;47.678;-122.174;2022-08-21T12:18:00;1.27;;;1.10;;
16304;SDS011;8261;47.678;-122.174;2022-08-21T12:20:40;1.10;;;1.00;;
16304;SDS011;8261;47.678;-122.174;2022-08-21T12:23:25;1.30;;;1.17;;
16304;SDS011;8261;47.678;-122.174;2022-08-21T12:26:03;1.00;;;1.00;;
16304;SDS011;8261;47.678;-122.174;2022-08-21T12:29:11;1.30;;;1.20;;
16304;SDS011;8261;47.678;-122.174;2022-08-21T12:31:49;2.00;;;1.20;;
16304;SDS011;8261;47.678;-122.174;2022-08-21T12:34:44;3.23;;;1.50;;
16304;SDS011;8261;47.678;-122.174;2022-08-21T12:37:20;1.20;;;1.10;;
16304;SDS011;8261;47.678;-122.174;2022-08-21T12:39:57;1.33;;;1.23;;
16304;SDS011;8261;47.678;-122.174;2022-08-21T12:42:32;1.37;;;1.27;;
16304;SDS011;8261;47.678;-122.174;2022-08-21T12:45:11;1.10;;;1.07;;
16304;SDS011;8261;47.678;-122.174;2022-08-21T12:47:50;1.30;;;1.20;;
16304;SDS011;8261;47.678;-122.174;2022-08-21T12:50:29;1.63;;;1.33;;
16304;SDS011;8261;47.678;-122.174;2022-08-21T12:53:06;2.40;;;1.30;;
16304;SDS011;8261;47.678;-122.174;2022-08-21T12:55:46;1.30;;;1.10;;
16304;SDS011;8261;47.678;-122.174;2022-08-21T12:58:19;2.10;;;1.53;;
16304;SDS011;8261;47.678;-122.174;2022-08-21T13:00:52;1.73;;;1.23;;
16304;SDS011;8261;47.678;-122.174;2022-08-21T13:03:25;1.13;;;1.03;;
16304;SDS011;8261;47.678;-122.174;2022-08-21T13:06:00;1.93;;;1.20;;
16304;SDS011;8261;47.678;-122.174;2022-08-21T13:08:35;1.30;;;1.20;;
16304;SDS011;8261;47.678;-122.174;2022-08-21T13:11:14;2.07;;;1.40;;
16304;SDS011;8261;47.678;-122.174;2022-08-21T13:14:00;1.50;;;1.20;;
16304;SDS011;8261;47.678;-122.174;2022-08-21T13:16:35;1.30;;;1.10;;
16304;SDS011;8261;47.678;-122.174;2022-08-21T13:19:11;2.20;;;1.37;;
16304;SDS011;8261;47.678;-122.174;2022-08-21T13:21:52;1.90;;;1.20;;
16304;SDS011;8261;47.678;-122.174;2022-08-21T13:24:24;1.43;;;1.13;;
16304;SDS011;8261;47.678;-122.174;2022-08-21T13:27:23;1.40;;;1.20;;
16304;SDS011;8261;47.678;-122.174;2022-08-21T13:30:04;1.53;;;1.07;;
16304;SDS011;8261;47.678;-122.174;2022-08-21T13:32:41;1.43;;;1.20;;
16304;SDS011;8261;47.678;-122.174;2022-08-21T13:35:16;1.27;;;1.17;;
16304;SDS011;8261;47.678;-122.174;2022-08-21T13:37:51;1.53;;;1.23;;
16304;SDS011;8261;47.678;-122.174;2022-08-21T13:40:25;1.50;;;1.30;;
16304;SDS011;8261;47.678;-122.174;2022-08-21T13:43:00;1.37;;;1.27;;
16304;SDS011;8261;47.678;-122.174;2022-08-21T13:45:32;1.50;;;1.37;;
16304;SDS011;8261;47.678;-122.174;2022-08-21T13:48:03;2.00;;;1.50;;
16304;SDS011;8261;47.678;-122.174;2022-08-21T13:50:35;1.53;;;1.30;;
16304;SDS011;8261;47.678;-122.174;2022-08-21T13:53:23;1.30;;;1.20;;
16304;SDS011;8261;47.678;-122.174;2022-08-21T13:55:58;2.23;;;1.47;;
16304;SDS011;8261;47.678;-122.174;2022-08-21T13:58:30;1.63;;;1.40;;
16304;SDS011;8261;47.678;-122.174;2022-08-21T14:01:03;1.60;;;1.50;;
16304;SDS011;8261;47.678;-122.174;2022-08-21T14:03:35;1.60;;;1.50;;
16304;SDS011;8261;47.678;-122.174;2022-08-21T14:06:11;1.60;;;1.50;;
16304;SDS011;8261;47.678;-122.174;2022-08-21T14:08:50;2.43;;;1.80;;
16304;SDS011;8261;47.678;-122.174;2022-08-21T14:11:25;2.27;;;1.73;;
16304;SDS011;8261;47.678;-122.174;2022-08-21T14:14:00;1.73;;;1.40;;
16304;SDS011;8261;47.678;-122.174;2022-08-21T14:16:43;2.80;;;1.37;;
16304;SDS011;8261;47.678;-122.174;2022-08-21T14:19:19;2.10;;;1.90;;
16304;SDS011;8261;47.678;-122.174;2022-08-21T14:21:54;1.40;;;1.30;;
16304;SDS011;8261;47.678;-122.174;2022-08-21T14:24:28;2.03;;;1.50;;
16304;SDS011;8261;47.678;-122.174;2022-08-21T14:27:04;1.67;;;1.50;;
16304;SDS011;8261;47.678;-122.174;2022-08-21T14:29:37;3.47;;;1.60;;
16304;SDS011;8261;47.678;-122.174;2022-08-21T14:32:12;1.50;;;1.40;;
16304;SDS011;8261;47.678;-122.174;2022-08-21T14:34:51;1.73;;;1.40;;
16304;SDS011;8261;47.678;-122.174;2022-08-21T14:37:25;1.93;;;1.50;;
16304;SDS011;8261;47.678;-122.174;2022-08-21T14:39:58;1.40;;;1.30;;
16304;SDS011;8261;47.678;-122.174;2022-08-21T14:42:30;1.70;;;1.60;;
16304;SDS011;8261;47.678;-122.174;2022-08-21T14:45:05;2.17;;;1.40;;
16304;SDS011;8261;47.678;-122.174;2022-08-21T14:47:46;1.77;;;1.33;;
16304;SDS011;8261;47.678;-122.174;2022-08-21T14:50:18;1.87;;;1.50;;
16304;SDS011;8261;47.678;-122.174;2022-08-21T14:52:53;1.40;;;1.30;;
16304;SDS011;8261;47.678;-122.174;2022-08-21T14:55:27;1.60;;;1.50;;
16304;SDS011;8261;47.678;-122.174;2022-08-21T14:58:20;1.53;;;1.43;;
16304;SDS011;8261;47.678;-122.174;2022-08-21T15:00:52;1.40;;;1.30;;
16304;SDS011;8261;47.678;-122.174;2022-08-21T15:03:25;4.03;;;1.70;;
16304;SDS011;8261;47.678;-122.174;2022-08-21T15:05:58;3.53;;;1.70;;
16304;SDS011;8261;47.678;-122.174;2022-08-21T15:08:30;1.87;;;1.40;;
16304;SDS011;8261;47.678;-122.174;2022-08-21T15:11:05;1.57;;;1.47;;
16304;SDS011;8261;47.678;-122.174;2022-08-21T15:13:45;2.00;;;1.20;;
16304;SDS011;8261;47.678;-122.174;2022-08-21T15:16:19;2.30;;;1.50;;
16304;SDS011;8261;47.678;-122.174;2022-08-21T15:18:50;2.83;;;1.50;;
16304;SDS011;8261;47.678;-122.174;2022-08-21T15:21:21;1.30;;;1.20;;
16304;SDS011;8261;47.678;-122.174;2022-08-21T15:23:54;2.03;;;1.60;;
16304;SDS011;8261;47.678;-122.174;2022-08-21T15:26:27;2.43;;;1.63;;
16304;SDS011;8261;47.678;-122.174;2022-08-21T15:28:59;2.00;;;1.83;;
16304;SDS011;8261;47.678;-122.174;2022-08-21T15:31:32;3.40;;;1.47;;
16304;SDS011;8261;47.678;-122.174;2022-08-21T15:34:04;2.83;;;1.67;;
16304;SDS011;8261;47.678;-122.174;2022-08-21T15:36:38;1.60;;;1.50;;
16304;SDS011;8261;47.678;-122.174;2022-08-21T15:39:09;2.20;;;1.70;;
16304;SDS011;8261;47.678;-122.174;2022-08-21T15:41:45;2.50;;;2.20;;
16304;SDS011;8261;47.678;-122.174;2022-08-21T15:44:18;2.53;;;1.73;;
16304;SDS011;8261;47.678;-122.174;2022-08-21T15:47:17;1.40;;;1.30;;